Latest Weather Observations for Keith West

IDS60801

Issued at 10:31 am CST Tuesday 16 August 2022 (issued every 10 minutes, with the page automatically refreshed every 10 minutes)

About weather observations | Map of weather stations | Latest weather observations for SA | Other Formats
Station Details ID: 025557 Name: MUNKORA Lat: -36.11 Lon: 140.33 Height: 27.0 m
Data from the previous 72 hours. | See also: Recent months at Keith West
Date/Time
CST
Temp
°C
App
Temp
°C
Dew
Point
°C
Rel
Hum
%
Delta-T
°C
Wind Press
QNH
hPa
Press
MSL
hPa
Rain since
9am
mm
Dir  Spd
km/h
Gust
km/h
Spd
kts
Gust
kts
16/10:30am 13.0 8.4 8.1 72 2.4 SSW 22 32 12 17 1019.0 1019.1 0.0
16/10:00am 12.6 9.3 9.4 81 1.6 SSW 17 24 9 13 1018.9 1019.0 0.0
16/09:30am 12.1 8.7 9.1 82 1.5 SSW 17 24 9 13 1018.8 1018.9 0.0
16/09:00am 11.4 7.5 9.3 87 1.1 SW 20 32 11 17 1018.6 1018.7 0.4
16/08:30am 10.7 8.1 9.3 91 0.7 SW 13 19 7 10 1018.6 1018.7 0.4
16/08:00am 9.7 7.3 8.5 92 0.6 SW 11 17 6 9 1018.0 1018.1 0.4
16/07:30am 9.1 6.6 8.0 93 0.5 SW 11 15 6 8 1017.5 1017.6 0.4
16/07:00am 7.3 5.2 6.7 96 0.3 WSW 7 11 4 6 1016.8 1016.8 0.4
16/06:30am 6.2 3.9 5.6 96 0.3 W 7 7 4 4 1016.0 1016.0 0.4
16/06:00am 6.1 3.8 5.5 96 0.3 WSW 7 9 4 5 1015.3 1015.3 0.4
16/05:30am 5.5 2.7 5.1 97 0.2 W 9 11 5 6 1014.8 1014.8 0.4
16/05:00am 5.1 2.2 4.5 96 0.3 W 9 11 5 6 1014.1 1014.1 0.4
16/04:30am 6.1 3.6 4.9 92 0.5 WSW 7 11 4 6 1013.9 1013.9 0.4
16/04:00am 7.1 4.8 5.9 92 0.5 WSW 7 9 4 5 1013.5 1013.5 0.4
16/03:30am 8.1 4.9 6.7 91 0.6 SW 13 17 7 9 1013.3 1013.3 0.4
16/03:00am 6.6 3.7 6.3 98 0.1 WSW 11 20 6 11 1013.4 1013.4 0.4
16/02:30am 5.2 2.2 4.3 94 0.4 WSW 9 11 5 6 1013.5 1013.5 0.4
16/02:00am 6.5 4.2 5.6 94 0.4 W 7 9 4 5 1013.7 1013.7 0.4
16/01:30am 8.3 5.3 7.5 95 0.4 WSW 13 17 7 9 1013.6 1013.6 0.4
16/01:00am 5.7 2.5 5.3 97 0.2 W 11 13 6 7 1013.4 1013.4 0.2
16/12:30am 5.0 1.3 4.4 96 0.3 W 13 15 7 8 1013.1 1013.1 0.2
16/12:00am 5.6 2.0 5.2 97 0.2 W 13 13 7 7 1012.8 1012.8 0.2
 
Date/Time
CST
Temp
°C
App
Temp
°C
Dew
Point
°C
Rel
Hum
%
Delta-T
°C
Wind Press
QNH
hPa
Press
MSL
hPa
Rain since
9am
mm
Dir  Spd
km/h
Gust
km/h
Spd
kts
Gust
kts
15/11:30pm 5.2 1.9 4.6 96 0.3 W 11 13 6 7 1012.6 1012.6 0.2
15/11:00pm 4.8 1.8 4.1 95 0.3 W 9 11 5 6 1012.4 1012.4 0.2
15/10:30pm 5.6 2.7 4.7 94 0.4 WNW 9 11 5 6 1012.4 1012.4 0.2
15/10:00pm 7.1 4.5 6.2 94 0.4 WSW 9 9 5 5 1012.4 1012.4 0.2
15/09:30pm 7.5 5.4 6.6 94 0.4 WSW 7 9 4 5 1012.0 1012.0 0.2
15/09:00pm 5.8 3.4 5.1 95 0.3 W 7 9 4 5 1011.9 1011.9 0.2
15/08:30pm 6.0 3.6 5.1 94 0.4 W 7 9 4 5 1011.6 1011.6 0.2
15/08:00pm 6.7 4.0 5.5 92 0.5 WSW 9 11 5 6 1011.4 1011.4 0.2
15/07:30pm 8.5 6.1 7.0 90 0.7 WSW 9 11 5 6 1011.1 1011.1 0.2
15/07:00pm 9.0 6.7 7.3 89 0.8 WSW 9 13 5 7 1010.6 1010.6 0.2
15/06:30pm 9.6 7.4 7.7 88 0.9 WSW 9 15 5 8 1010.3 1010.3 0.2
15/06:00pm 9.8 7.6 7.7 87 1.0 WSW 9 13 5 7 1009.8 1009.8 0.2
15/05:30pm 10.9 7.9 7.8 81 1.5 WSW 13 17 7 9 1009.2 1009.2 0.2
15/05:00pm 12.3 8.2 7.8 74 2.2 WSW 19 26 10 14 1008.8 1008.8 0.2
15/04:30pm 12.4 8.6 7.5 72 2.4 WSW 17 24 9 13 1008.7 1008.7 0.2
15/04:00pm 12.6 8.4 8.1 74 2.2 SW 20 28 11 15 1008.6 1008.6 0.2
15/03:30pm 13.4 9.4 8.3 71 2.5 SW 19 26 10 14 1008.4 1008.4 0.2
15/03:00pm 12.6 9.0 9.8 83 1.4 WSW 19 26 10 14 1008.4 1008.4 0.2
15/02:30pm 12.0 7.4 8.1 77 1.9 SW 22 41 12 22 1008.2 1008.2 0.2
15/02:00pm 14.1 10.1 8.9 71 2.6 SW 20 30 11 16 1007.9 1007.9 0.2
15/01:30pm 14.2 11.5 10.4 78 2.0 W 15 22 8 12 1007.9 1007.9 0.2
15/01:00pm 13.7 9.0 9.2 74 2.3 W 24 32 13 17 1008.1 1008.1 0.2
15/12:30pm 13.6 10.6 9.3 75 2.2 W 15 22 8 12 1008.5 1008.5 0.2
15/12:00pm 12.9 10.1 10.1 83 1.4 W 15 20 8 11 1008.8 1008.8 0.2
15/11:30am 11.7 8.7 9.4 86 1.2 W 15 20 8 11 1009.1 1009.1 0.2
15/11:00am 12.4 9.9 9.6 83 1.4 SW 13 19 7 10 1009.2 1009.2 0.0
15/10:30am 12.4 10.1 10.3 87 1.1 WSW 13 20 7 11 1009.4 1009.4 0.0
15/10:00am 11.9 9.0 9.8 87 1.1 WNW 15 19 8 10 1009.4 1009.4 0.0
15/09:30am 11.2 9.1 9.8 91 0.7 WNW 11 19 6 10 1009.4 1009.4 0.0
15/09:00am 10.8 8.4 9.9 94 0.5 NW 13 17 7 9 1009.5 1009.5 1.2
15/08:30am 9.9 7.7 9.4 97 0.2 NW 11 15 6 8 1009.4 1009.4 1.2
15/08:00am 9.3 6.6 9.0 98 0.1 NW 13 19 7 10 1009.6 1009.6 1.2
15/07:30am 8.3 6.1 8.0 98 0.1 NNW 9 11 5 6 1009.4 1009.4 1.0
15/07:00am 8.8 6.4 8.5 98 0.1 NW 11 13 6 7 1009.2 1009.2 1.0
15/06:30am 8.9 7.2 8.5 97 0.2 NW 7 9 4 5 1009.3 1009.3 1.0
15/06:00am 9.1 6.4 8.8 98 0.1 NW 13 17 7 9 1009.4 1009.4 0.6
15/05:30am 9.1 5.6 8.8 98 0.1 NW 17 20 9 11 1009.2 1009.2 0.4
15/05:00am 9.0 6.2 8.7 98 0.1 NW 13 17 7 9 1009.1 1009.1 0.0
15/04:30am 8.8 6.8 8.7 99 0.0 NW 9 13 5 7 1009.2 1009.2 0.0
15/04:00am 8.1 6.3 8.0 99 0.0 NNW 7 7 4 4 1009.4 1009.4 0.0
15/03:30am 7.1 5.1 7.0 99 0.0 NNW 7 7 4 4 1009.4 1009.4 0.0
15/03:00am 5.1 2.8 4.8 98 0.1 NNW 6 7 3 4 1009.7 1009.7 0.0
15/02:30am 3.8 0.7 3.5 98 0.1 NNW 9 11 5 6 1009.8 1009.8 0.0
15/02:00am 4.3 1.7 4.0 98 0.1 NNW 7 9 4 5 1010.2 1010.2 0.0
15/01:30am 4.9 2.6 4.6 98 0.1 NNW 6 7 3 4 1010.5 1010.5 0.0
15/01:00am 4.3 1.7 4.0 98 0.1 NW 7 9 4 5 1010.8 1010.8 0.0
15/12:30am 4.2 1.5 3.8 97 0.2 NNW 7 9 4 5 1010.9 1010.9 0.0
15/12:00am 4.7 1.7 4.3 97 0.2 NW 9 11 5 6 1011.2 1011.2 0.0
 
Date/Time
CST
Temp
°C
App
Temp
°C
Dew
Point
°C
Rel
Hum
%
Delta-T
°C
Wind Press
QNH
hPa
Press
MSL
hPa
Rain since
9am
mm
Dir  Spd
km/h
Gust
km/h
Spd
kts
Gust
kts
14/11:30pm 4.6 2.0 4.2 97 0.2 NNW 7 9 4 5 1011.2 1011.2 0.0
14/11:00pm 5.4 2.6 5.0 97 0.2 NW 9 13 5 7 1011.6 1011.6 0.0
14/10:30pm 5.8 2.7 5.4 97 0.2 WNW 11 13 6 7 1011.7 1011.7 0.0
14/10:00pm 5.9 3.1 5.3 96 0.3 WNW 9 11 5 6 1011.8 1011.8 0.0
14/09:30pm 7.0 5.0 6.4 96 0.3 WNW 6 7 3 4 1012.1 1012.1 0.0
14/09:00pm 6.1 3.3 5.2 94 0.4 NW 9 9 5 5 1012.0 1012.0 0.0
14/08:30pm 7.7 5.3 7.0 95 0.3 NW 9 11 5 6 1011.9 1011.9 0.0
14/08:00pm 8.2 6.3 7.6 96 0.3 WNW 7 9 4 5 1012.0 1012.0 0.0
14/07:30pm 6.4 3.7 5.7 95 0.3 WNW 9 11 5 6 1011.9 1011.9 0.0
14/07:00pm 7.0 4.6 5.3 89 0.8 W 7 7 4 4 1011.8 1011.8 0.0
14/06:30pm 9.4 6.8 7.7 89 0.8 WSW 11 13 6 7 1011.7 1011.7 0.0
14/06:00pm 10.4 7.5 8.0 85 1.2 WSW 13 17 7 9 1011.7 1011.7 0.0
14/05:30pm 11.4 8.2 8.6 83 1.4 WSW 15 20 8 11 1011.7 1011.7 0.0
14/05:00pm 12.6 8.4 8.3 75 2.1 WSW 20 26 11 14 1011.5 1011.5 0.0
14/04:30pm 13.5 9.4 8.6 72 2.5 WSW 20 26 11 14 1011.6 1011.6 0.0
14/04:00pm 12.9 8.8 8.6 75 2.1 WSW 20 28 11 15 1011.5 1011.5 0.0
14/03:30pm 14.3 9.7 8.3 67 3.0 WSW 22 32 12 17 1011.4 1011.4 0.0
14/03:00pm 14.8 9.9 8.5 66 3.2 WSW 24 33 13 18 1011.6 1011.6 0.0
14/02:30pm 15.1 11.3 9.2 68 3.0 WSW 19 26 10 14 1011.5 1011.5 0.0
14/02:00pm 13.9 10.0 9.3 74 2.3 WSW 20 28 11 15 1011.7 1011.7 0.0
14/01:30pm 14.9 10.3 9.7 71 2.7 WSW 24 32 13 17 1011.9 1011.9 0.0
14/01:00pm 13.9 10.2 9.5 75 2.3 SW 19 24 10 13 1012.4 1012.4 0.0
14/12:30pm 14.6 12.0 10.6 77 2.1 W 15 20 8 11 1012.6 1012.6 0.0
14/12:00pm 13.8 11.2 10.8 82 1.6 W 15 22 8 12 1013.1 1013.1 0.0
14/11:30am 12.9 10.6 10.4 85 1.3 W 13 19 7 10 1013.6 1013.6 0.0
14/11:00am 11.9 9.6 10.3 90 0.8 W 13 19 7 10 1013.9 1013.9 0.0
14/10:30am 11.0 9.1 10.5 97 0.3 W 11 17 6 9 1014.0 1014.0 0.0
14/10:00am 10.2 9.1 10.1 99 0.1 WSW 6 11 3 6 1014.0 1014.0 0.0
14/09:30am 9.7 8.3 9.6 99 0.0 SSW 7 9 4 5 1013.8 1013.8 0.0
14/09:00am 9.0 7.6 8.9 99 0.0 SW 6 9 3 5 1013.8 1013.8 1.2
14/08:30am 8.7 7.2 8.6 99 0.0 S 6 9 3 5 1014.0 1014.0 1.2
14/08:00am 8.3 6.7 8.2 99 0.0 SSW 6 9 3 5 1013.8 1013.8 1.2
14/07:30am 7.6 6.6 7.5 99 0.0 SW 2 4 1 2 1013.4 1013.4 1.0
14/07:00am 7.3 4.9 7.2 99 0.0 S 9 13 5 7 1013.4 1013.4 1.0
14/06:30am 7.0 4.6 6.9 99 0.0 S 9 13 5 7 1013.0 1013.0 1.0
14/06:00am 7.1 4.3 7.0 99 0.0 S 11 17 6 9 1012.6 1012.6 1.0
14/05:30am 6.8 3.6 6.7 99 0.0 SSW 13 17 7 9 1012.4 1012.4 1.0
14/05:00am 5.6 2.9 5.5 99 0.0 S 9 11 5 6 1012.3 1012.3 1.0
14/04:30am 2.5 0.1 2.2 98 0.1 W 4 6 2 3 1012.2 1012.2 1.0
14/04:00am 3.0 0.7 2.7 98 0.1 W 4 4 2 2 1012.2 1012.2 1.0
14/03:30am 3.1 1.2 2.8 98 0.1 W 2 4 1 2 1012.3 1012.3 1.0
14/03:00am 3.6 1.8 3.3 98 0.1 WSW 2 2 1 1 1012.3 1012.3 1.0
14/02:30am 4.2 2.5 3.9 98 0.1 WSW 2 4 1 2 1012.4 1012.4 1.0
14/02:00am 4.5 2.8 4.2 98 0.1 W 2 4 1 2 1012.8 1012.8 1.0
14/01:30am 5.1 3.2 4.8 98 0.1 W 4 4 2 2 1012.8 1012.8 1.0
14/01:00am 6.5 5.2 6.2 98 0.1 SW 2 4 1 2 1012.6 1012.6 1.0
14/12:30am 6.3 4.2 6.0 98 0.1 WSW 6 7 3 4 1012.8 1012.8 1.0
14/12:00am 7.4 5.0 7.1 98 0.1 WSW 9 11 5 6 1012.7 1012.7 1.0
 
Date/Time
CST
Temp
°C
App
Temp
°C
Dew
Point
°C
Rel
Hum
%
Delta-T
°C
Wind Press
QNH
hPa
Press
MSL
hPa
Rain since
9am
mm
Dir  Spd
km/h
Gust
km/h
Spd
kts
Gust
kts
13/11:30pm 5.3 3.0 4.9 97 0.2 W 6 7 3 4 1012.5 1012.5 1.0
13/11:00pm 6.0 4.2 5.6 97 0.2 W 4 4 2 2 1012.5 1012.5 1.0
13/10:30pm 7.1 5.5 6.5 96 0.3 SW 4 6 2 3 1012.5 1012.5 1.0
13/10:00pm 8.6 7.0 8.2 97 0.2 SW 6 7 3 4 1012.7 1012.7 1.0
13/09:30pm 8.4 6.8 7.8 96 0.3 WSW 6 9 3 5 1012.7 1012.7 1.0
13/09:00pm 9.8 8.3 9.2 96 0.3 SW 7 9 4 5 1012.7 1012.7 1.0
13/08:30pm 9.7 8.2 9.1 96 0.3 SW 7 9 4 5 1012.7 1012.7 1.0
13/08:00pm 9.6 8.2 8.8 95 0.4 SW 6 7 3 4 1012.5 1012.5 1.0
13/07:30pm 10.3 8.9 9.5 95 0.4 SSW 7 9 4 5 1012.2 1012.2 1.0
13/07:00pm 10.5 8.7 9.4 93 0.5 SSW 9 17 5 9 1012.1 1012.1 1.0
13/06:30pm 10.8 8.3 9.6 92 0.6 SW 13 17 7 9 1011.8 1011.8 0.6
13/06:00pm 11.3 9.2 9.7 90 0.8 SW 11 15 6 8 1011.6 1011.6 0.0
13/05:30pm 10.9 9.5 9.7 92 0.6 WSW 7 9 4 5 1011.5 1011.5 0.0
13/05:00pm 11.1 9.3 9.5 90 0.8 WSW 9 13 5 7 1011.2 1011.2 0.0
13/04:30pm 11.8 9.7 9.7 87 1.1 WSW 11 15 6 8 1011.3 1011.3 0.0
13/04:00pm 11.6 9.5 9.9 89 0.9 SW 11 15 6 8 1011.2 1011.2 0.0
13/03:30pm 12.3 10.2 9.9 85 1.2 SW 11 15 6 8 1011.1 1011.1 0.0
13/03:00pm 11.5 8.5 9.4 87 1.1 SW 15 24 8 13 1011.0 1011.0 0.0
13/02:30pm 11.2 8.3 9.6 90 0.8 S 15 20 8 11 1011.0 1011.0 0.0
13/02:00pm 13.3 10.7 9.4 77 2.0 WSW 13 17 7 9 1010.8 1010.8 0.0
13/01:30pm 13.0 10.7 9.1 77 2.0 SW 11 15 6 8 1010.9 1010.9 0.0
13/01:00pm 13.1 10.7 8.8 75 2.2 SSW 11 13 6 7 1011.2 1011.2 0.0
13/12:30pm 12.5 10.5 8.8 78 1.9 SSW 9 13 5 7 1011.6 1011.6 0.0
13/12:00pm 12.5 10.3 9.5 82 1.5 SSW 11 15 6 8 1011.9 1011.9 0.0
13/11:30am 13.4 12.3 10.6 83 1.5 SW 7 11 4 6 1012.0 1012.0 0.0
13/11:00am 12.2 10.8 9.4 83 1.4 SSW 7 13 4 7 1012.1 1012.1 0.0

Other formats

Comma delimited format used in spreadsheet applications
http://www.bom.gov.au/fwo/IDS60801/IDS60801.95815.axf

JavaScript Object Notation format (JSON) in row-major order
http://www.bom.gov.au/fwo/IDS60801/IDS60801.95815.json

Data quality

Most of these data are generated automatically and are frequently updated. Quality checks on data are not normally performed. It is possible for incorrect values to appear. Refer to information at About Latest Weather Observations and please check the disclaimer before using these data.